createdAt,value
2018-05-03T00:00:19.848Z,7.70
2018-05-03T00:02:47.769Z,6.20
2018-05-03T00:05:15.711Z,4.60
2018-05-03T00:07:43.631Z,4.93
2018-05-03T00:10:11.548Z,9.33
2018-05-03T00:12:39.493Z,5.10
2018-05-03T00:15:07.393Z,5.47
2018-05-03T00:17:35.310Z,4.90
2018-05-03T00:20:03.269Z,4.70
2018-05-03T00:22:32.018Z,5.40
2018-05-03T00:25:00.516Z,7.03
2018-05-03T00:27:28.452Z,5.60
2018-05-03T00:29:56.385Z,5.50
2018-05-03T00:32:24.315Z,6.13
2018-05-03T00:34:52.251Z,5.70
2018-05-03T00:37:20.170Z,5.07
2018-05-03T00:39:48.104Z,6.83
2018-05-03T00:42:16.029Z,6.70
2018-05-03T00:44:43.954Z,6.33
2018-05-03T00:47:11.870Z,5.10
2018-05-03T00:49:40.608Z,6.40
2018-05-03T00:52:08.523Z,8.57
2018-05-03T00:54:48.524Z,5.93
2018-05-03T00:57:16.473Z,5.50
2018-05-03T00:59:44.380Z,6.80
2018-05-03T01:02:12.314Z,5.13
2018-05-03T01:04:40.238Z,6.00
2018-05-03T01:07:08.145Z,5.33
2018-05-03T01:09:36.093Z,6.60
2018-05-03T01:12:04.028Z,6.50
2018-05-03T01:14:32.889Z,5.70
2018-05-03T01:17:00.825Z,6.50
2018-05-03T01:19:29.679Z,6.30
2018-05-03T01:21:57.600Z,6.93
2018-05-03T01:24:25.633Z,6.90
2018-05-03T01:26:53.466Z,6.80
2018-05-03T01:29:21.375Z,5.40
2018-05-03T01:31:49.328Z,6.27
2018-05-03T01:34:17.254Z,5.70
2018-05-03T01:36:45.170Z,6.50
2018-05-03T01:39:13.100Z,6.13
2018-05-03T01:41:41.010Z,7.00
2018-05-03T01:44:08.943Z,6.50
2018-05-03T01:46:36.924Z,5.50
2018-05-03T01:49:04.838Z,6.43
2018-05-03T01:51:32.752Z,6.07
2018-05-03T01:54:01.650Z,6.00
2018-05-03T01:56:29.567Z,5.90
2018-05-03T01:58:57.485Z,6.37
2018-05-03T02:01:26.581Z,6.60
2018-05-03T02:03:54.516Z,6.03
2018-05-03T02:06:22.424Z,6.37
2018-05-03T02:08:50.380Z,6.30
2018-05-03T02:11:18.310Z,6.50
2018-05-03T02:13:46.217Z,5.60
2018-05-03T02:16:14.155Z,7.80
2018-05-03T02:18:42.073Z,7.07
2018-05-03T02:21:10.001Z,6.63
2018-05-03T02:23:38.005Z,6.63
2018-05-03T02:26:06.101Z,6.67
2018-05-03T02:28:34.036Z,7.00
2018-05-03T02:31:02.022Z,6.87
2018-05-03T02:33:29.930Z,6.40
2018-05-03T02:35:57.852Z,7.10
2018-05-03T02:38:25.801Z,6.10
2018-05-03T02:40:54.530Z,6.63
2018-05-03T02:43:22.442Z,6.63
2018-05-03T02:45:50.357Z,7.17
2018-05-03T02:48:18.281Z,7.23
2018-05-03T02:50:46.206Z,7.30
2018-05-03T02:53:14.140Z,7.03
2018-05-03T02:55:42.050Z,6.70
2018-05-03T02:58:21.698Z,6.50
2018-05-03T03:01:07.113Z,7.33
2018-05-03T03:03:47.519Z,6.73
2018-05-03T03:06:33.198Z,7.53
2018-05-03T03:09:15.616Z,8.00
2018-05-03T03:15:34.683Z,7.80
2018-05-03T03:18:14.457Z,7.77
2018-05-03T03:20:59.961Z,7.90
2018-05-03T03:23:45.353Z,8.43
2018-05-03T03:29:54.663Z,10.30
2018-05-03T03:32:34.441Z,9.80
2018-05-03T03:38:17.821Z,10.33
2018-05-03T03:40:52.612Z,9.80
2018-05-03T03:43:32.252Z,11.10
2018-05-03T03:46:00.197Z,11.23
2018-05-03T03:48:28.106Z,10.33
2018-05-03T03:50:56.582Z,11.03
2018-05-03T03:53:24.489Z,11.63
2018-05-03T03:55:53.037Z,11.60
2018-05-03T03:58:21.921Z,10.87
2018-05-03T04:00:49.838Z,11.80
2018-05-03T04:03:17.748Z,11.50
2018-05-03T04:05:45.681Z,12.53
2018-05-03T04:08:13.587Z,14.07
2018-05-03T04:10:41.496Z,12.63
2018-05-03T04:13:09.436Z,12.40
2018-05-03T04:15:38.292Z,13.27
2018-05-03T04:18:17.997Z,13.43
2018-05-03T04:21:02.558Z,13.80
2018-05-03T04:23:42.318Z,15.63
2018-05-03T04:26:10.233Z,14.13
2018-05-03T04:28:39.096Z,15.30
2018-05-03T04:31:08.027Z,14.40
2018-05-03T04:33:36.888Z,15.53
2018-05-03T04:36:05.762Z,13.83
2018-05-03T04:38:33.693Z,15.30
2018-05-03T04:41:01.593Z,14.63
2018-05-03T04:43:30.452Z,13.90
2018-05-03T04:45:59.339Z,13.60
2018-05-03T04:48:28.205Z,12.70
2018-05-03T04:50:57.101Z,12.40
2018-05-03T04:53:25.993Z,12.27
2018-05-03T04:55:54.862Z,11.00
2018-05-03T04:58:23.721Z,11.60
2018-05-03T05:00:52.613Z,10.63
2018-05-03T05:03:21.472Z,10.57
2018-05-03T05:05:50.339Z,9.83
2018-05-03T05:08:19.234Z,10.83
2018-05-03T05:10:48.099Z,10.00
2018-05-03T05:13:16.955Z,10.27
2018-05-03T05:15:45.840Z,10.43
2018-05-03T05:18:14.703Z,10.20
2018-05-03T05:20:43.566Z,8.97
2018-05-03T05:23:12.440Z,9.93
2018-05-03T05:25:41.501Z,9.97
2018-05-03T05:28:10.359Z,10.17
2018-05-03T05:30:39.297Z,8.90
2018-05-03T05:33:08.144Z,11.70
2018-05-03T05:35:37.012Z,10.07
2018-05-03T05:38:05.904Z,11.17
2018-05-03T05:40:34.761Z,9.33
2018-05-03T05:43:03.633Z,8.93
2018-05-03T05:45:32.521Z,10.93
2018-05-03T05:48:02.176Z,10.70
2018-05-03T05:50:31.034Z,8.67
2018-05-03T05:52:59.917Z,9.07
2018-05-03T05:55:28.794Z,9.20
2018-05-03T05:57:57.657Z,7.90
2018-05-03T06:00:26.546Z,7.67
2018-05-03T06:02:55.414Z,7.43
2018-05-03T06:05:24.276Z,8.37
2018-05-03T06:07:53.160Z,7.73
2018-05-03T06:10:21.089Z,8.00
2018-05-03T06:12:49.957Z,8.83
2018-05-03T06:15:18.832Z,6.60
2018-05-03T06:17:47.034Z,8.17
2018-05-03T06:20:16.474Z,7.27
2018-05-03T06:22:44.397Z,8.13
2018-05-03T06:25:13.297Z,8.00
2018-05-03T06:27:42.152Z,8.97
2018-05-03T06:30:10.103Z,6.30
2018-05-03T06:32:38.972Z,8.87
2018-05-03T06:35:07.858Z,7.73
2018-05-03T06:37:36.737Z,8.10
2018-05-03T06:40:05.597Z,8.00
2018-05-03T06:42:34.458Z,8.00
2018-05-03T06:45:03.357Z,6.70
2018-05-03T06:47:32.234Z,7.60
2018-05-03T06:50:01.197Z,6.87
2018-05-03T06:52:29.172Z,8.70
2018-05-03T06:54:57.216Z,6.30
2018-05-03T06:57:26.077Z,5.73
2018-05-03T06:59:54.978Z,5.57
2018-05-03T07:02:23.866Z,5.93
2018-05-03T07:04:52.721Z,5.80
2018-05-03T07:07:20.847Z,6.97
2018-05-03T07:09:49.797Z,5.90
2018-05-03T07:12:18.600Z,6.93
2018-05-03T07:14:46.529Z,5.53
2018-05-03T07:17:15.396Z,5.90
2018-05-03T07:19:43.306Z,8.03
2018-05-03T07:22:11.254Z,7.40
2018-05-03T07:24:39.166Z,6.70
2018-05-03T07:27:08.021Z,4.70
2018-05-03T07:29:36.914Z,4.63
2018-05-03T07:32:05.770Z,7.60
2018-05-03T07:34:34.643Z,6.53
2018-05-03T07:37:03.526Z,4.53
2018-05-03T07:39:32.262Z,5.40
2018-05-03T07:42:01.321Z,6.20
2018-05-03T07:44:29.287Z,4.30
2018-05-03T07:46:57.215Z,5.47
2018-05-03T07:49:25.177Z,5.27
2018-05-03T07:51:53.086Z,4.50
2018-05-03T07:54:21.948Z,6.43
2018-05-03T07:56:56.033Z,4.87
2018-05-03T07:59:23.954Z,5.83
2018-05-03T08:01:51.904Z,4.07
2018-05-03T08:04:19.805Z,4.73
2018-05-03T08:06:47.720Z,5.93
2018-05-03T08:09:15.646Z,8.60
2018-05-03T08:11:43.963Z,5.47
2018-05-03T08:14:11.902Z,4.10
2018-05-03T08:16:40.769Z,5.40
2018-05-03T08:19:08.670Z,4.37
2018-05-03T08:21:36.591Z,4.50
2018-05-03T08:24:04.539Z,5.47
2018-05-03T08:26:32.524Z,6.40
2018-05-03T08:29:00.432Z,4.93
2018-05-03T08:31:28.343Z,5.60
2018-05-03T08:33:56.318Z,4.57
2018-05-03T08:36:24.235Z,13.00
2018-05-03T08:38:52.137Z,4.10
2018-05-03T08:41:20.494Z,8.00
2018-05-03T08:43:48.394Z,6.37
2018-05-03T08:46:16.303Z,4.20
2018-05-03T08:48:44.224Z,6.40
2018-05-03T08:51:12.126Z,5.50
2018-05-03T08:53:40.029Z,4.53
2018-05-03T08:59:08.173Z,6.37
2018-05-03T09:01:37.173Z,5.73
2018-05-03T09:04:05.607Z,6.53
2018-05-03T09:06:33.530Z,6.70
2018-05-03T09:09:01.459Z,3.13
2018-05-03T09:11:29.360Z,5.20
2018-05-03T09:13:57.335Z,7.10
2018-05-03T09:16:25.274Z,9.90
2018-05-03T09:18:53.187Z,6.80
2018-05-03T09:21:21.086Z,6.90
2018-05-03T09:23:49.025Z,6.37
2018-05-03T09:26:16.950Z,4.97
2018-05-03T09:28:44.862Z,4.70
2018-05-03T09:31:12.804Z,4.90
2018-05-03T09:33:40.726Z,5.60
2018-05-03T09:36:08.934Z,3.83
2018-05-03T09:38:36.868Z,3.80
2018-05-03T09:41:04.968Z,5.57
2018-05-03T09:43:32.876Z,6.00
2018-05-03T09:46:00.900Z,5.33
2018-05-03T09:48:29.685Z,5.43
2018-05-03T09:50:57.611Z,2.83
2018-05-03T09:53:25.537Z,5.17
2018-05-03T09:55:54.385Z,3.47
2018-05-03T09:58:22.300Z,5.30
2018-05-03T10:00:50.221Z,3.67
2018-05-03T10:03:18.133Z,4.10
2018-05-03T10:05:46.450Z,3.57
2018-05-03T10:08:14.577Z,4.17
2018-05-03T10:10:42.498Z,6.13
2018-05-03T10:13:10.444Z,6.53
2018-05-03T10:15:38.376Z,4.17
2018-05-03T10:18:07.248Z,4.60
2018-05-03T10:20:35.152Z,5.33
2018-05-03T10:23:03.108Z,5.10
2018-05-03T10:25:31.031Z,4.80
2018-05-03T10:27:58.968Z,5.30
2018-05-03T10:30:26.914Z,5.20
2018-05-03T10:32:54.819Z,6.80
2018-05-03T10:35:22.837Z,3.53
2018-05-03T10:37:50.775Z,4.17
2018-05-03T10:40:18.678Z,4.20
2018-05-03T10:42:46.601Z,4.83
2018-05-03T10:45:14.587Z,3.53
2018-05-03T10:47:42.469Z,6.30
2018-05-03T10:50:10.382Z,3.53
2018-05-03T10:52:38.376Z,4.03
2018-05-03T10:55:06.299Z,5.07
2018-05-03T10:57:34.244Z,3.73
2018-05-03T11:00:02.473Z,3.80
2018-05-03T11:02:30.444Z,4.33
2018-05-03T11:04:58.370Z,4.23
2018-05-03T11:07:34.149Z,4.43
2018-05-03T11:10:02.078Z,4.50
2018-05-03T11:12:30.003Z,3.60
2018-05-03T11:14:57.952Z,5.33
2018-05-03T11:17:27.055Z,5.60
2018-05-03T11:19:54.962Z,6.40
2018-05-03T11:22:23.043Z,5.87
2018-05-03T11:24:53.902Z,5.10
2018-05-03T11:27:24.270Z,3.57
2018-05-03T11:29:52.881Z,3.93
2018-05-03T11:32:21.194Z,4.77
2018-05-03T11:34:49.124Z,4.00
2018-05-03T11:37:17.110Z,4.13
2018-05-03T11:39:47.045Z,4.10
2018-05-03T11:42:17.074Z,5.77
2018-05-03T11:44:47.890Z,7.63
2018-05-03T11:47:18.524Z,6.23
2018-05-03T11:49:48.312Z,4.80
2018-05-03T11:52:18.417Z,6.37
2018-05-03T11:54:48.931Z,5.20
2018-05-03T11:57:16.992Z,5.30
2018-05-03T11:59:44.891Z,3.77
2018-05-03T12:02:12.820Z,4.40
2018-05-03T12:04:40.872Z,5.40
2018-05-03T12:07:08.789Z,3.50
2018-05-03T12:09:36.756Z,5.70
2018-05-03T12:12:04.732Z,4.70
2018-05-03T12:14:32.826Z,6.37
2018-05-03T12:17:08.216Z,4.73
2018-05-03T12:19:45.919Z,4.87
2018-05-03T12:22:14.206Z,3.23
2018-05-03T12:24:42.116Z,4.80
2018-05-03T12:27:10.029Z,5.67
2018-05-03T12:29:37.979Z,5.53
2018-05-03T12:32:05.985Z,5.57
2018-05-03T12:34:33.886Z,5.10
2018-05-03T12:37:01.973Z,3.70
2018-05-03T12:39:29.923Z,5.20
2018-05-03T12:41:58.008Z,6.83
2018-05-03T12:44:25.944Z,4.80
2018-05-03T12:46:53.863Z,6.70
2018-05-03T12:49:21.927Z,4.80
2018-05-03T12:51:50.816Z,4.30
2018-05-03T12:54:18.737Z,3.53
2018-05-03T12:56:46.667Z,5.83
2018-05-03T12:59:14.615Z,3.33
2018-05-03T13:01:42.523Z,4.63
2018-05-03T13:04:10.620Z,5.00
2018-05-03T13:06:38.561Z,3.50
2018-05-03T13:09:06.487Z,5.80
2018-05-03T13:11:34.441Z,4.70
2018-05-03T13:14:02.593Z,4.50
2018-05-03T13:16:30.515Z,6.57
2018-05-03T13:18:58.443Z,5.17
2018-05-03T13:21:26.349Z,4.63
2018-05-03T13:23:54.269Z,5.43
2018-05-03T13:26:22.194Z,4.83
2018-05-03T13:28:50.175Z,5.80
2018-05-03T13:31:18.122Z,3.80
2018-05-03T13:33:46.125Z,4.43
2018-05-03T13:36:14.027Z,6.30
2018-05-03T13:38:41.937Z,7.07
2018-05-03T13:41:10.079Z,5.50
2018-05-03T13:43:38.159Z,5.30
2018-05-03T13:46:06.701Z,3.80
2018-05-03T13:48:34.628Z,3.40
2018-05-03T13:51:05.053Z,4.60
2018-05-03T13:53:33.147Z,5.53
2018-05-03T13:56:01.170Z,4.50
2018-05-03T13:58:29.169Z,2.77
2018-05-03T14:01:17.906Z,3.50
2018-05-03T14:06:29.744Z,3.77
2018-05-03T14:08:57.651Z,4.90
2018-05-03T14:11:25.578Z,7.80
2018-05-03T14:13:53.701Z,5.00
2018-05-03T14:16:21.612Z,6.10
2018-05-03T14:18:49.520Z,5.90
2018-05-03T14:21:17.551Z,6.27
2018-05-03T14:23:45.523Z,4.53
2018-05-03T14:26:13.660Z,2.87
2018-05-03T14:28:41.630Z,4.30
2018-05-03T14:31:09.576Z,6.93
2018-05-03T14:33:37.550Z,3.83
2018-05-03T14:36:05.520Z,4.40
2018-05-03T14:38:33.442Z,4.77
2018-05-03T14:41:02.303Z,5.90
2018-05-03T14:43:30.239Z,4.10
2018-05-03T14:45:58.198Z,3.50
2018-05-03T14:48:26.106Z,4.50
2018-05-03T14:50:54.183Z,4.07
2018-05-03T14:53:22.102Z,4.73
2018-05-03T14:55:50.773Z,4.00
2018-05-03T14:58:18.800Z,3.60
2018-05-03T15:00:47.265Z,3.40
2018-05-03T15:03:15.515Z,5.47
2018-05-03T15:05:43.433Z,3.67
2018-05-03T15:08:11.338Z,3.40
2018-05-03T15:10:40.626Z,4.70
2018-05-03T15:13:10.765Z,4.47
2018-05-03T15:15:40.254Z,3.40
2018-05-03T15:18:08.314Z,4.40
2018-05-03T15:20:36.291Z,7.80
2018-05-03T15:23:05.153Z,3.43
2018-05-03T15:25:33.077Z,3.27
2018-05-03T15:28:01.336Z,2.70
2018-05-03T15:30:29.635Z,5.00
2018-05-03T15:32:57.546Z,4.40
2018-05-03T15:35:25.478Z,3.80
2018-05-03T15:37:53.510Z,3.10
2018-05-03T15:40:21.410Z,3.20
2018-05-03T15:42:50.077Z,3.30
2018-05-03T15:45:20.711Z,7.63
2018-05-03T15:47:51.437Z,7.03
2018-05-03T15:55:54.771Z,3.90
2018-05-03T15:58:22.707Z,3.20
2018-05-03T16:00:51.370Z,3.37
2018-05-03T16:03:19.338Z,3.37
2018-05-03T16:11:35.566Z,3.70
2018-05-03T16:14:03.485Z,4.30
2018-05-03T16:16:31.406Z,5.97
2018-05-03T16:18:59.390Z,4.93
2018-05-03T16:21:27.362Z,3.40
2018-05-03T16:23:55.328Z,4.23
2018-05-03T16:26:23.278Z,4.63
2018-05-03T16:28:51.314Z,3.40
2018-05-03T16:31:19.225Z,4.97
2018-05-03T16:33:47.200Z,3.43
2018-05-03T16:36:15.145Z,4.80
2018-05-03T16:38:43.085Z,5.80
2018-05-03T16:41:11.073Z,4.93
2018-05-03T16:43:40.090Z,8.03
2018-05-03T16:46:10.878Z,6.27
2018-05-03T16:48:39.760Z,5.10
2018-05-03T16:51:07.838Z,3.57
2018-05-03T16:53:35.990Z,3.50
2018-05-03T16:56:03.996Z,6.03
2018-05-03T16:58:31.901Z,7.13
2018-05-03T17:00:59.801Z,3.97
2018-05-03T17:03:27.750Z,3.57
2018-05-03T17:05:55.659Z,5.10
2018-05-03T17:08:23.588Z,8.20
2018-05-03T17:10:51.518Z,3.83
2018-05-03T17:13:19.431Z,4.93
2018-05-03T17:15:47.354Z,4.20
2018-05-03T17:18:15.282Z,5.53
2018-05-03T17:20:43.244Z,6.83
2018-05-03T17:23:11.173Z,5.80
2018-05-03T17:25:39.121Z,5.90
2018-05-03T17:28:07.037Z,4.53
2018-05-03T17:30:34.963Z,6.07
2018-05-03T17:33:02.908Z,8.10
2018-05-03T17:35:30.828Z,4.60
2018-05-03T17:37:58.756Z,5.43
2018-05-03T17:40:26.713Z,5.07
2018-05-03T17:42:54.625Z,6.73
2018-05-03T17:45:22.540Z,7.63
2018-05-03T17:47:50.773Z,6.43
2018-05-03T17:50:18.696Z,6.03
2018-05-03T17:52:46.661Z,7.00
2018-05-03T17:55:14.622Z,9.30
2018-05-03T17:57:42.544Z,6.50
2018-05-03T18:00:10.460Z,5.77
2018-05-03T18:02:38.418Z,6.00
2018-05-03T18:05:07.310Z,5.07
2018-05-03T18:07:35.218Z,4.93
2018-05-03T18:10:03.452Z,5.63
2018-05-03T18:12:31.411Z,5.90
2018-05-03T18:14:59.364Z,5.07
2018-05-03T18:17:27.358Z,8.13
2018-05-03T18:19:55.550Z,4.77
2018-05-03T18:22:23.605Z,6.13
2018-05-03T18:24:51.694Z,6.77
2018-05-03T18:27:19.648Z,8.93
2018-05-03T18:29:47.626Z,6.03
2018-05-03T18:32:15.617Z,8.43
2018-05-03T18:34:43.599Z,7.63
2018-05-03T18:37:11.641Z,7.50
2018-05-03T18:39:39.676Z,8.77
2018-05-03T18:45:09.150Z,8.60
2018-05-03T18:47:39.636Z,8.70
2018-05-03T18:50:07.865Z,8.10
2018-05-03T18:52:35.993Z,8.13
2018-05-03T18:55:03.979Z,8.00
2018-05-03T18:57:32.016Z,8.70
2018-05-03T19:00:00.061Z,6.53
2018-05-03T19:02:28.086Z,6.73
2018-05-03T19:04:56.142Z,7.53
2018-05-03T19:07:24.236Z,7.77
2018-05-03T19:09:52.272Z,6.40
2018-05-03T19:12:20.309Z,6.67
2018-05-03T19:14:48.287Z,7.27
2018-05-03T19:17:16.312Z,6.17
2018-05-03T19:19:44.332Z,6.20
2018-05-03T19:22:12.328Z,4.73
2018-05-03T19:24:40.331Z,6.13
2018-05-03T19:27:08.455Z,8.20
2018-05-03T19:29:36.443Z,6.23
2018-05-03T19:32:04.478Z,7.67
2018-05-03T19:34:32.497Z,6.80
2018-05-03T19:37:00.490Z,5.23
2018-05-03T19:39:28.503Z,6.47
2018-05-03T19:41:56.578Z,6.37
2018-05-03T19:44:25.524Z,7.63
2018-05-03T19:46:54.496Z,7.33
2018-05-03T19:49:23.478Z,4.80
2018-05-03T19:51:52.466Z,6.90
2018-05-03T19:54:20.451Z,5.67
2018-05-03T19:56:49.491Z,10.63
2018-05-03T19:59:18.719Z,5.90
2018-05-03T20:01:47.668Z,5.63
2018-05-03T20:04:15.724Z,7.90
2018-05-03T20:06:44.710Z,9.97
2018-05-03T20:09:12.782Z,8.83
2018-05-03T20:11:41.686Z,5.20
2018-05-03T20:14:09.762Z,6.70
2018-05-03T20:16:37.895Z,6.67
2018-05-03T20:19:05.936Z,6.03
2018-05-03T20:21:33.937Z,7.00
2018-05-03T20:24:02.014Z,8.60
2018-05-03T20:26:30.032Z,8.83
2018-05-03T20:28:58.024Z,9.63
2018-05-03T20:31:26.019Z,5.63
2018-05-03T20:33:55.601Z,7.60
2018-05-03T20:36:25.442Z,7.73
2018-05-03T20:38:53.448Z,10.20
2018-05-03T20:41:23.357Z,9.37
2018-05-03T20:43:53.384Z,9.70
2018-05-03T20:46:21.690Z,6.97
2018-05-03T20:48:50.412Z,10.93
2018-05-03T20:51:18.339Z,7.43
2018-05-03T20:53:46.267Z,7.67
2018-05-03T20:56:16.238Z,7.60
2018-05-03T20:58:44.344Z,6.53
2018-05-03T21:01:12.288Z,8.47
2018-05-03T21:03:40.289Z,5.13
2018-05-03T21:06:08.517Z,5.83
2018-05-03T21:08:36.730Z,8.07
2018-05-03T21:11:04.948Z,8.57
2018-05-03T21:13:32.974Z,6.73
2018-05-03T21:16:01.191Z,4.73
2018-05-03T21:18:30.281Z,6.47
2018-05-03T21:20:59.161Z,5.10
2018-05-03T21:23:28.143Z,8.17
2018-05-03T21:25:57.057Z,5.47
2018-05-03T21:28:25.911Z,5.10
2018-05-03T21:30:54.781Z,4.70
2018-05-03T21:33:24.534Z,7.37
2018-05-03T21:35:53.419Z,5.27
2018-05-03T21:38:22.295Z,5.53
2018-05-03T21:40:51.227Z,4.70
2018-05-03T21:43:19.161Z,6.97
2018-05-03T21:45:47.083Z,10.60
2018-05-03T21:48:15.030Z,5.53
2018-05-03T21:50:43.135Z,6.63
2018-05-03T21:53:11.506Z,5.43
2018-05-03T21:55:39.543Z,4.40
2018-05-03T21:58:07.919Z,5.47
2018-05-03T22:00:36.244Z,5.60
2018-05-03T22:03:04.315Z,6.43
2018-05-03T22:05:32.295Z,5.10
2018-05-03T22:08:00.801Z,4.73
2018-05-03T22:10:29.760Z,6.90
2018-05-03T22:12:58.623Z,6.50
2018-05-03T22:15:27.501Z,5.63
2018-05-03T22:17:56.392Z,6.73
2018-05-03T22:20:25.246Z,4.87
2018-05-03T22:22:54.109Z,5.53
2018-05-03T22:25:23.008Z,6.27
2018-05-03T22:27:51.863Z,7.70
2018-05-03T22:30:20.720Z,3.73
2018-05-03T22:32:49.635Z,6.17
2018-05-03T22:35:18.510Z,7.53
2018-05-03T22:37:47.407Z,7.50
2018-05-03T22:40:16.309Z,5.37
2018-05-03T22:42:45.199Z,3.73
2018-05-03T22:45:14.059Z,4.57
2018-05-03T22:47:42.955Z,7.80
2018-05-03T22:50:11.805Z,6.73
2018-05-03T22:52:40.677Z,5.90
2018-05-03T22:55:09.581Z,5.30
2018-05-03T22:57:38.432Z,4.43
2018-05-03T23:00:07.296Z,4.90
2018-05-03T23:02:36.184Z,6.33
2018-05-03T23:05:05.053Z,8.17
2018-05-03T23:07:33.906Z,5.80
2018-05-03T23:10:02.870Z,6.50
2018-05-03T23:12:31.729Z,6.30
2018-05-03T23:15:00.626Z,6.20
2018-05-03T23:17:29.576Z,4.20
2018-05-03T23:19:58.425Z,4.70
2018-05-03T23:22:27.272Z,5.93
2018-05-03T23:24:56.172Z,3.70
2018-05-03T23:27:25.039Z,7.00
2018-05-03T23:29:53.884Z,4.17
2018-05-03T23:32:22.765Z,4.47
2018-05-03T23:34:51.626Z,5.83
2018-05-03T23:37:20.488Z,7.27
2018-05-03T23:39:50.095Z,3.87
2018-05-03T23:42:18.954Z,7.07
2018-05-03T23:44:47.828Z,5.70
2018-05-03T23:47:16.725Z,6.30
2018-05-03T23:49:45.590Z,8.80
2018-05-03T23:52:14.454Z,5.27
2018-05-03T23:54:43.337Z,4.80
2018-05-03T23:57:12.201Z,6.37
2018-05-03T23:59:41.070Z,10.23
